sensor_id;sensor_type;location;lat;lon;timestamp;pressure;altitude;pressure_sealevel;temperature;humidity
17311;BME280;8773;43.300;0.394;2023-06-19T00:01:52;99238.44;;;22.04;77.55
17311;BME280;8773;43.300;0.394;2023-06-19T00:04:19;99237.84;;;22.02;77.39
17311;BME280;8773;43.300;0.394;2023-06-19T00:06:48;99224.63;;;21.94;77.46
17311;BME280;8773;43.300;0.394;2023-06-19T00:09:16;99217.81;;;21.91;77.13
17311;BME280;8773;43.300;0.394;2023-06-19T00:11:43;99214.59;;;21.94;77.31
17311;BME280;8773;43.300;0.394;2023-06-19T00:14:11;99204.53;;;21.95;77.44
17311;BME280;8773;43.300;0.394;2023-06-19T00:16:38;99198.13;;;22.01;77.15
17311;BME280;8773;43.300;0.394;2023-06-19T00:19:06;99206.19;;;21.68;77.48
17311;BME280;8773;43.300;0.394;2023-06-19T00:21:33;99219.06;;;21.60;78.10
17311;BME280;8773;43.300;0.394;2023-06-19T00:24:02;99227.44;;;21.59;77.84
17311;BME280;8773;43.300;0.394;2023-06-19T00:26:30;99242.00;;;21.64;77.61
17311;BME280;8773;43.300;0.394;2023-06-19T00:28:57;99250.00;;;21.59;77.37
17311;BME280;8773;43.300;0.394;2023-06-19T00:31:24;99243.66;;;21.42;77.60
17311;BME280;8773;43.300;0.394;2023-06-19T00:33:52;99236.13;;;21.21;77.73
17311;BME280;8773;43.300;0.394;2023-06-19T00:36:19;99233.31;;;21.04;78.28
17311;BME280;8773;43.300;0.394;2023-06-19T00:38:47;99232.13;;;21.00;78.44
17311;BME280;8773;43.300;0.394;2023-06-19T00:41:16;99246.06;;;21.04;78.72
17311;BME280;8773;43.300;0.394;2023-06-19T00:43:44;99240.38;;;20.93;78.58
17311;BME280;8773;43.300;0.394;2023-06-19T00:46:12;99243.75;;;20.77;79.31
17311;BME280;8773;43.300;0.394;2023-06-19T00:48:39;99240.63;;;20.92;78.94
17311;BME280;8773;43.300;0.394;2023-06-19T00:51:07;99236.38;;;20.96;78.70
17311;BME280;8773;43.300;0.394;2023-06-19T00:53:34;99239.50;;;20.81;78.68
17311;BME280;8773;43.300;0.394;2023-06-19T00:56:03;99241.75;;;20.84;78.84
17311;BME280;8773;43.300;0.394;2023-06-19T00:58:33;99232.84;;;20.95;78.60
17311;BME280;8773;43.300;0.394;2023-06-19T01:01:01;99225.41;;;21.03;78.09
17311;BME280;8773;43.300;0.394;2023-06-19T01:03:36;99220.91;;;21.08;77.77
17311;BME280;8773;43.300;0.394;2023-06-19T01:06:07;99227.97;;;21.32;77.37
17311;BME280;8773;43.300;0.394;2023-06-19T01:08:47;99231.28;;;21.46;76.53
17311;BME280;8773;43.300;0.394;2023-06-19T01:11:19;99232.75;;;21.54;76.04
17311;BME280;8773;43.300;0.394;2023-06-19T01:13:55;99241.84;;;21.59;75.60
17311;BME280;8773;43.300;0.394;2023-06-19T01:16:24;99227.56;;;21.52;75.38
17311;BME280;8773;43.300;0.394;2023-06-19T01:18:53;99229.91;;;21.60;75.21
17311;BME280;8773;43.300;0.394;2023-06-19T01:21:20;99224.97;;;21.57;75.47
17311;BME280;8773;43.300;0.394;2023-06-19T01:23:49;99229.69;;;21.50;75.53
17311;BME280;8773;43.300;0.394;2023-06-19T01:26:17;99226.91;;;21.45;75.46
17311;BME280;8773;43.300;0.394;2023-06-19T01:28:45;99236.09;;;21.44;75.35
17311;BME280;8773;43.300;0.394;2023-06-19T01:31:19;99235.03;;;21.45;75.12
17311;BME280;8773;43.300;0.394;2023-06-19T01:33:48;99224.66;;;21.42;75.00
17311;BME280;8773;43.300;0.394;2023-06-19T01:36:17;99223.94;;;21.47;74.68
17311;BME280;8773;43.300;0.394;2023-06-19T01:38:49;99229.84;;;21.44;74.73
17311;BME280;8773;43.300;0.394;2023-06-19T01:41:19;99236.09;;;21.44;74.89
17311;BME280;8773;43.300;0.394;2023-06-19T01:43:47;99233.97;;;21.46;74.75
17311;BME280;8773;43.300;0.394;2023-06-19T01:46:16;99223.78;;;21.53;74.75
17311;BME280;8773;43.300;0.394;2023-06-19T01:48:43;99231.28;;;21.46;74.81
17311;BME280;8773;43.300;0.394;2023-06-19T01:51:11;99230.91;;;21.43;74.73
17311;BME280;8773;43.300;0.394;2023-06-19T01:53:38;99231.50;;;21.45;74.67
17311;BME280;8773;43.300;0.394;2023-06-19T01:56:07;99234.34;;;21.38;74.46
17311;BME280;8773;43.300;0.394;2023-06-19T01:58:35;99237.41;;;21.42;74.74
17311;BME280;8773;43.300;0.394;2023-06-19T02:01:02;99225.13;;;21.39;74.74
17311;BME280;8773;43.300;0.394;2023-06-19T02:03:30;99224.25;;;21.50;74.31
17311;BME280;8773;43.300;0.394;2023-06-19T02:05:57;99227.25;;;21.49;74.32
17311;BME280;8773;43.300;0.394;2023-06-19T02:08:25;99233.94;;;21.58;73.92
17311;BME280;8773;43.300;0.394;2023-06-19T02:10:52;99239.19;;;21.36;74.46
17311;BME280;8773;43.300;0.394;2023-06-19T02:13:21;99235.16;;;21.39;74.93
17311;BME280;8773;43.300;0.394;2023-06-19T02:15:48;99231.75;;;21.43;74.51
17311;BME280;8773;43.300;0.394;2023-06-19T02:18:16;99225.50;;;21.31;74.48
17311;BME280;8773;43.300;0.394;2023-06-19T02:20:43;99239.78;;;21.26;74.75
17311;BME280;8773;43.300;0.394;2023-06-19T02:23:11;99249.09;;;21.42;74.32
17311;BME280;8773;43.300;0.394;2023-06-19T02:25:38;99257.81;;;21.56;74.17
17311;BME280;8773;43.300;0.394;2023-06-19T02:28:06;99267.59;;;21.57;74.13
17311;BME280;8773;43.300;0.394;2023-06-19T02:30:35;99274.84;;;21.63;74.03
17311;BME280;8773;43.300;0.394;2023-06-19T02:33:02;99272.94;;;21.63;74.00
17311;BME280;8773;43.300;0.394;2023-06-19T02:35:30;99277.91;;;21.67;73.82
17311;BME280;8773;43.300;0.394;2023-06-19T02:37:57;99272.47;;;21.67;73.71
17311;BME280;8773;43.300;0.394;2023-06-19T02:40:24;99262.66;;;21.65;73.45
17311;BME280;8773;43.300;0.394;2023-06-19T02:42:52;99260.06;;;21.71;73.43
17311;BME280;8773;43.300;0.394;2023-06-19T02:45:20;99259.34;;;21.52;73.88
17311;BME280;8773;43.300;0.394;2023-06-19T02:47:48;99254.41;;;21.37;74.45
17311;BME280;8773;43.300;0.394;2023-06-19T02:50:16;99262.22;;;21.45;74.46
17311;BME280;8773;43.300;0.394;2023-06-19T02:52:44;99271.53;;;21.49;74.42
17311;BME280;8773;43.300;0.394;2023-06-19T02:55:11;99271.91;;;21.41;74.58
17311;BME280;8773;43.300;0.394;2023-06-19T02:57:39;99280.03;;;21.41;74.54
17311;BME280;8773;43.300;0.394;2023-06-19T03:00:07;99293.34;;;21.54;74.30
17311;BME280;8773;43.300;0.394;2023-06-19T03:02:35;99302.69;;;21.58;74.19
17311;BME280;8773;43.300;0.394;2023-06-19T03:05:04;99309.44;;;21.44;74.55
17311;BME280;8773;43.300;0.394;2023-06-19T03:07:31;99313.94;;;21.39;74.74
17311;BME280;8773;43.300;0.394;2023-06-19T03:09:59;99303.75;;;21.11;75.21
17311;BME280;8773;43.300;0.394;2023-06-19T03:12:26;99306.72;;;20.97;76.17
17311;BME280;8773;43.300;0.394;2023-06-19T03:14:54;99305.28;;;20.95;76.27
17311;BME280;8773;43.300;0.394;2023-06-19T03:17:21;99294.53;;;20.88;76.56
17311;BME280;8773;43.300;0.394;2023-06-19T03:19:49;99289.13;;;20.88;76.54
17311;BME280;8773;43.300;0.394;2023-06-19T03:22:19;99277.31;;;20.94;76.05
17311;BME280;8773;43.300;0.394;2023-06-19T03:24:47;99273.81;;;21.06;75.43
17311;BME280;8773;43.300;0.394;2023-06-19T03:27:14;99278.50;;;21.10;75.57
17311;BME280;8773;43.300;0.394;2023-06-19T03:29:42;99270.13;;;21.00;75.84
17311;BME280;8773;43.300;0.394;2023-06-19T03:32:09;99268.81;;;21.14;75.44
17311;BME280;8773;43.300;0.394;2023-06-19T03:34:37;99261.38;;;21.10;75.45
17311;BME280;8773;43.300;0.394;2023-06-19T03:37:05;99265.66;;;21.06;75.64
17311;BME280;8773;43.300;0.394;2023-06-19T03:39:34;99265.88;;;21.16;75.58
17311;BME280;8773;43.300;0.394;2023-06-19T03:42:01;99267.66;;;20.98;76.03
17311;BME280;8773;43.300;0.394;2023-06-19T03:44:28;99252.00;;;20.59;77.17
17311;BME280;8773;43.300;0.394;2023-06-19T03:46:56;99235.78;;;20.41;78.01
17311;BME280;8773;43.300;0.394;2023-06-19T03:49:23;99217.72;;;20.34;78.56
17311;BME280;8773;43.300;0.394;2023-06-19T03:51:51;99226.28;;;20.61;77.86
17311;BME280;8773;43.300;0.394;2023-06-19T03:54:19;99237.28;;;20.78;77.63
17311;BME280;8773;43.300;0.394;2023-06-19T03:56:48;99233.97;;;20.88;77.16
17311;BME280;8773;43.300;0.394;2023-06-19T03:59:15;99237.56;;;20.88;77.25
17311;BME280;8773;43.300;0.394;2023-06-19T04:01:43;99219.75;;;20.92;76.58
17311;BME280;8773;43.300;0.394;2023-06-19T04:04:10;99220.63;;;20.75;76.95
17311;BME280;8773;43.300;0.394;2023-06-19T04:06:38;99209.91;;;20.80;77.26
17311;BME280;8773;43.300;0.394;2023-06-19T04:09:05;99203.03;;;20.54;77.84
17311;BME280;8773;43.300;0.394;2023-06-19T04:11:33;99196.19;;;20.40;78.50
17311;BME280;8773;43.300;0.394;2023-06-19T04:14:02;99183.56;;;20.45;78.30
17311;BME280;8773;43.300;0.394;2023-06-19T04:16:29;99172.38;;;20.42;78.37
17311;BME280;8773;43.300;0.394;2023-06-19T04:18:56;99173.81;;;20.56;77.69
17311;BME280;8773;43.300;0.394;2023-06-19T04:21:24;99186.41;;;20.74;77.07
17311;BME280;8773;43.300;0.394;2023-06-19T04:23:51;99230.25;;;20.89;76.84
17311;BME280;8773;43.300;0.394;2023-06-19T04:26:19;99279.81;;;20.96;76.45
17311;BME280;8773;43.300;0.394;2023-06-19T04:28:46;99293.38;;;20.96;76.49
17311;BME280;8773;43.300;0.394;2023-06-19T04:31:15;99295.66;;;20.81;77.16
17311;BME280;8773;43.300;0.394;2023-06-19T04:33:43;99302.81;;;20.63;77.38
17311;BME280;8773;43.300;0.394;2023-06-19T04:36:10;99344.06;;;20.84;76.99
17311;BME280;8773;43.300;0.394;2023-06-19T04:38:38;99376.38;;;20.85;77.01
17311;BME280;8773;43.300;0.394;2023-06-19T04:41:05;99378.94;;;20.98;76.51
17311;BME280;8773;43.300;0.394;2023-06-19T04:43:33;99397.59;;;20.77;77.14
17311;BME280;8773;43.300;0.394;2023-06-19T04:46:00;99407.16;;;20.79;76.98
17311;BME280;8773;43.300;0.394;2023-06-19T04:48:29;99415.91;;;20.63;77.25
17311;BME280;8773;43.300;0.394;2023-06-19T04:50:57;99399.06;;;20.61;77.48
17311;BME280;8773;43.300;0.394;2023-06-19T04:53:24;99378.69;;;20.70;77.26
17311;BME280;8773;43.300;0.394;2023-06-19T04:55:51;99387.28;;;20.67;77.30
17311;BME280;8773;43.300;0.394;2023-06-19T04:58:19;99380.09;;;20.73;76.74
17311;BME280;8773;43.300;0.394;2023-06-19T05:00:46;99387.63;;;20.59;77.54
17311;BME280;8773;43.300;0.394;2023-06-19T05:03:14;99389.63;;;20.63;77.11
17311;BME280;8773;43.300;0.394;2023-06-19T05:05:43;99384.84;;;20.77;76.88
17311;BME280;8773;43.300;0.394;2023-06-19T05:08:10;99379.66;;;20.76;76.84
17311;BME280;8773;43.300;0.394;2023-06-19T05:10:37;99374.28;;;20.87;76.69
17311;BME280;8773;43.300;0.394;2023-06-19T05:13:05;99345.34;;;20.81;76.61
17311;BME280;8773;43.300;0.394;2023-06-19T05:15:32;99331.88;;;20.75;77.22
17311;BME280;8773;43.300;0.394;2023-06-19T05:18:00;99346.34;;;20.57;77.51
17311;BME280;8773;43.300;0.394;2023-06-19T05:20:27;99378.81;;;20.75;77.71
17311;BME280;8773;43.300;0.394;2023-06-19T05:22:56;99395.16;;;20.87;77.22
17311;BME280;8773;43.300;0.394;2023-06-19T05:25:23;99406.09;;;20.98;77.15
17311;BME280;8773;43.300;0.394;2023-06-19T05:27:51;99411.75;;;21.09;76.39
17311;BME280;8773;43.300;0.394;2023-06-19T05:30:18;99411.88;;;21.02;76.56
17311;BME280;8773;43.300;0.394;2023-06-19T05:32:46;99404.59;;;20.84;77.02
17311;BME280;8773;43.300;0.394;2023-06-19T05:35:13;99399.84;;;20.80;77.21
17311;BME280;8773;43.300;0.394;2023-06-19T05:37:43;99391.66;;;20.68;77.29
17311;BME280;8773;43.300;0.394;2023-06-19T05:40:12;99382.59;;;20.74;77.58
17311;BME280;8773;43.300;0.394;2023-06-19T05:42:40;99380.75;;;20.86;77.51
17311;BME280;8773;43.300;0.394;2023-06-19T05:45:08;99389.53;;;20.88;77.55
17311;BME280;8773;43.300;0.394;2023-06-19T05:47:35;99389.94;;;20.85;77.35
17311;BME280;8773;43.300;0.394;2023-06-19T05:50:03;99387.00;;;20.87;77.36
17311;BME280;8773;43.300;0.394;2023-06-19T05:52:31;99391.38;;;20.88;76.79
17311;BME280;8773;43.300;0.394;2023-06-19T05:54:58;99395.84;;;20.82;77.22
17311;BME280;8773;43.300;0.394;2023-06-19T05:57:27;99399.47;;;20.94;77.12
17311;BME280;8773;43.300;0.394;2023-06-19T05:59:55;99395.91;;;20.94;76.99
17311;BME280;8773;43.300;0.394;2023-06-19T06:02:22;99402.63;;;20.91;76.87
17311;BME280;8773;43.300;0.394;2023-06-19T06:04:49;99401.31;;;20.64;77.41
17311;BME280;8773;43.300;0.394;2023-06-19T06:07:17;99394.72;;;20.72;76.56
17311;BME280;8773;43.300;0.394;2023-06-19T06:09:44;99406.31;;;20.79;76.87
17311;BME280;8773;43.300;0.394;2023-06-19T06:12:12;99399.69;;;20.45;76.43
17311;BME280;8773;43.300;0.394;2023-06-19T06:14:41;99395.94;;;20.46;77.45
17311;BME280;8773;43.300;0.394;2023-06-19T06:17:09;99397.69;;;20.70;77.25
17311;BME280;8773;43.300;0.394;2023-06-19T06:19:36;99397.88;;;20.57;77.10
17311;BME280;8773;43.300;0.394;2023-06-19T06:22:05;99379.19;;;20.49;77.83
17311;BME280;8773;43.300;0.394;2023-06-19T06:24:32;99366.94;;;20.28;78.71
17311;BME280;8773;43.300;0.394;2023-06-19T06:27:00;99369.38;;;20.18;78.88
17311;BME280;8773;43.300;0.394;2023-06-19T06:29:27;99359.09;;;19.83;79.71
17311;BME280;8773;43.300;0.394;2023-06-19T06:32:04;99350.69;;;19.91;79.58
17311;BME280;8773;43.300;0.394;2023-06-19T06:34:32;99356.78;;;20.05;79.54
17311;BME280;8773;43.300;0.394;2023-06-19T06:36:59;99346.28;;;20.15;78.64
17311;BME280;8773;43.300;0.394;2023-06-19T06:39:33;99342.28;;;20.18;78.47
17311;BME280;8773;43.300;0.394;2023-06-19T06:42:00;99320.81;;;19.98;78.68
17311;BME280;8773;43.300;0.394;2023-06-19T06:44:28;99311.91;;;19.91;79.39
17311;BME280;8773;43.300;0.394;2023-06-19T06:46:55;99307.69;;;19.95;79.39
17311;BME280;8773;43.300;0.394;2023-06-19T06:49:24;99307.09;;;19.93;80.11
17311;BME280;8773;43.300;0.394;2023-06-19T06:51:51;99309.97;;;20.16;79.44
17311;BME280;8773;43.300;0.394;2023-06-19T06:54:21;99307.44;;;20.33;79.12
17311;BME280;8773;43.300;0.394;2023-06-19T06:56:49;99310.59;;;20.30;78.86
17311;BME280;8773;43.300;0.394;2023-06-19T06:59:16;99318.94;;;20.17;79.48
17311;BME280;8773;43.300;0.394;2023-06-19T07:01:44;99311.34;;;20.37;79.12
17311;BME280;8773;43.300;0.394;2023-06-19T07:04:11;99307.94;;;19.93;79.95
17311;BME280;8773;43.300;0.394;2023-06-19T07:06:40;99305.91;;;19.89;79.54
17311;BME280;8773;43.300;0.394;2023-06-19T07:09:07;99319.91;;;19.86;79.67
17311;BME280;8773;43.300;0.394;2023-06-19T07:11:35;99310.09;;;20.03;79.60
17311;BME280;8773;43.300;0.394;2023-06-19T07:14:02;99275.25;;;20.07;79.18
17311;BME280;8773;43.300;0.394;2023-06-19T07:16:30;99244.16;;;20.09;78.78
17311;BME280;8773;43.300;0.394;2023-06-19T07:18:57;99186.53;;;19.54;79.73
17311;BME280;8773;43.300;0.394;2023-06-19T07:21:27;99169.44;;;19.17;80.85
17311;BME280;8773;43.300;0.394;2023-06-19T07:23:56;99176.53;;;19.18;80.10
17311;BME280;8773;43.300;0.394;2023-06-19T07:26:24;99184.78;;;19.23;80.31
17311;BME280;8773;43.300;0.394;2023-06-19T07:28:51;99170.19;;;19.60;79.16
17311;BME280;8773;43.300;0.394;2023-06-19T07:31:19;99170.56;;;19.94;77.52
17311;BME280;8773;43.300;0.394;2023-06-19T07:33:46;99160.16;;;20.21;76.05
17311;BME280;8773;43.300;0.394;2023-06-19T07:36:14;99166.72;;;20.66;74.69
17311;BME280;8773;43.300;0.394;2023-06-19T07:38:42;99176.16;;;21.11;73.04
17311;BME280;8773;43.300;0.394;2023-06-19T07:41:11;99180.13;;;21.43;72.09
17311;BME280;8773;43.300;0.394;2023-06-19T07:43:38;99172.41;;;21.52;71.36
17311;BME280;8773;43.300;0.394;2023-06-19T07:46:06;99170.59;;;21.81;70.81
17311;BME280;8773;43.300;0.394;2023-06-19T07:48:33;99163.19;;;21.53;71.62
17311;BME280;8773;43.300;0.394;2023-06-19T07:51:01;99163.00;;;21.83;70.45
17311;BME280;8773;43.300;0.394;2023-06-19T07:53:28;99171.66;;;21.80;70.91
17311;BME280;8773;43.300;0.394;2023-06-19T07:55:56;99184.16;;;22.09;69.42
17311;BME280;8773;43.300;0.394;2023-06-19T07:58:25;99195.63;;;21.83;69.21
17311;BME280;8773;43.300;0.394;2023-06-19T08:00:52;99178.16;;;22.24;68.74
17311;BME280;8773;43.300;0.394;2023-06-19T08:03:19;99171.22;;;23.00;66.26
17311;BME280;8773;43.300;0.394;2023-06-19T08:05:47;99174.56;;;23.68;64.43
17311;BME280;8773;43.300;0.394;2023-06-19T08:08:14;99172.41;;;24.45;60.59
17311;BME280;8773;43.300;0.394;2023-06-19T08:10:42;99164.69;;;25.11;60.38
17311;BME280;8773;43.300;0.394;2023-06-19T08:13:09;99160.34;;;25.78;59.24
17311;BME280;8773;43.300;0.394;2023-06-19T08:15:38;99158.78;;;26.12;56.26
17311;BME280;8773;43.300;0.394;2023-06-19T08:18:05;99153.88;;;26.24;56.90
17311;BME280;8773;43.300;0.394;2023-06-19T08:20:33;99169.13;;;25.95;57.54
17311;BME280;8773;43.300;0.394;2023-06-19T08:23:00;99173.25;;;26.03;56.33
17311;BME280;8773;43.300;0.394;2023-06-19T08:25:29;99169.56;;;25.62;56.39
17311;BME280;8773;43.300;0.394;2023-06-19T08:27:57;99165.38;;;25.44;57.61
17311;BME280;8773;43.300;0.394;2023-06-19T08:30:24;99175.38;;;24.76;58.15
17311;BME280;8773;43.300;0.394;2023-06-19T08:32:54;99179.72;;;24.13;59.44
17311;BME280;8773;43.300;0.394;2023-06-19T08:35:21;99177.84;;;24.18;60.80
17311;BME280;8773;43.300;0.394;2023-06-19T08:37:49;99166.16;;;24.23;60.63
17311;BME280;8773;43.300;0.394;2023-06-19T08:40:16;99158.69;;;24.08;58.98
17311;BME280;8773;43.300;0.394;2023-06-19T08:42:44;99145.34;;;23.85;59.78
17311;BME280;8773;43.300;0.394;2023-06-19T08:45:27;99140.38;;;23.33;61.75
17311;BME280;8773;43.300;0.394;2023-06-19T08:47:59;99138.78;;;23.37;62.42
17311;BME280;8773;43.300;0.394;2023-06-19T08:50:27;99124.41;;;23.69;61.86
17311;BME280;8773;43.300;0.394;2023-06-19T08:52:54;99123.81;;;23.61;60.43
17311;BME280;8773;43.300;0.394;2023-06-19T08:55:22;99115.47;;;23.73;59.75
17311;BME280;8773;43.300;0.394;2023-06-19T08:57:50;99100.72;;;23.69;58.50
17311;BME280;8773;43.300;0.394;2023-06-19T09:00:23;99104.56;;;23.95;59.78
17311;BME280;8773;43.300;0.394;2023-06-19T09:02:51;99112.53;;;24.34;59.50
17311;BME280;8773;43.300;0.394;2023-06-19T09:05:25;99116.50;;;24.53;57.75
17311;BME280;8773;43.300;0.394;2023-06-19T09:07:56;99111.91;;;24.26;58.05
17311;BME280;8773;43.300;0.394;2023-06-19T09:10:24;99110.28;;;24.25;57.31
17311;BME280;8773;43.300;0.394;2023-06-19T09:12:59;99092.75;;;24.48;57.98
17311;BME280;8773;43.300;0.394;2023-06-19T09:15:29;99077.13;;;24.12;58.07
17311;BME280;8773;43.300;0.394;2023-06-19T09:18:03;99041.19;;;23.56;58.82
17311;BME280;8773;43.300;0.394;2023-06-19T09:20:33;99024.22;;;23.22;60.10
17311;BME280;8773;43.300;0.394;2023-06-19T09:23:01;99012.38;;;23.38;60.58
17311;BME280;8773;43.300;0.394;2023-06-19T09:25:29;98984.03;;;23.66;59.64
17311;BME280;8773;43.300;0.394;2023-06-19T09:27:56;99023.44;;;24.17;59.06
17311;BME280;8773;43.300;0.394;2023-06-19T09:30:24;99075.81;;;24.46;57.36
17311;BME280;8773;43.300;0.394;2023-06-19T09:32:52;99098.47;;;24.89;56.14
17311;BME280;8773;43.300;0.394;2023-06-19T09:35:19;99095.59;;;24.69;54.50
17311;BME280;8773;43.300;0.394;2023-06-19T09:37:49;99091.38;;;24.98;54.81
17311;BME280;8773;43.300;0.394;2023-06-19T09:40:18;99078.41;;;25.20;54.23
17311;BME280;8773;43.300;0.394;2023-06-19T09:42:48;99094.91;;;25.56;54.37
17311;BME280;8773;43.300;0.394;2023-06-19T09:45:22;99095.28;;;26.10;53.32
17311;BME280;8773;43.300;0.394;2023-06-19T09:47:52;99107.06;;;26.06;52.05
17311;BME280;8773;43.300;0.394;2023-06-19T09:50:22;99108.97;;;26.05;51.67
17311;BME280;8773;43.300;0.394;2023-06-19T09:52:52;99098.59;;;26.33;51.51
17311;BME280;8773;43.300;0.394;2023-06-19T09:55:20;99112.56;;;26.41;51.36
17311;BME280;8773;43.300;0.394;2023-06-19T09:57:49;99103.72;;;26.75;48.36
17311;BME280;8773;43.300;0.394;2023-06-19T10:00:17;99102.63;;;27.01;47.32
17311;BME280;8773;43.300;0.394;2023-06-19T10:02:47;99107.81;;;27.03;47.20
17311;BME280;8773;43.300;0.394;2023-06-19T10:05:15;99107.81;;;26.87;47.56
17311;BME280;8773;43.300;0.394;2023-06-19T10:07:44;99106.97;;;27.12;50.54
17311;BME280;8773;43.300;0.394;2023-06-19T10:10:27;99108.47;;;27.39;48.79
17311;BME280;8773;43.300;0.394;2023-06-19T10:12:59;99099.97;;;27.45;46.55
17311;BME280;8773;43.300;0.394;2023-06-19T10:15:28;99102.06;;;27.64;46.56
17311;BME280;8773;43.300;0.394;2023-06-19T10:18:00;99103.78;;;27.49;46.25
17311;BME280;8773;43.300;0.394;2023-06-19T10:20:30;99103.97;;;27.09;46.72
17311;BME280;8773;43.300;0.394;2023-06-19T10:23:01;99105.09;;;26.72;48.38
17311;BME280;8773;43.300;0.394;2023-06-19T10:25:33;99101.06;;;26.49;51.64
17311;BME280;8773;43.300;0.394;2023-06-19T10:28:02;99107.03;;;26.26;53.24
17311;BME280;8773;43.300;0.394;2023-06-19T10:30:30;99111.19;;;26.34;51.70
17311;BME280;8773;43.300;0.394;2023-06-19T10:32:57;99108.97;;;26.10;51.72
17311;BME280;8773;43.300;0.394;2023-06-19T10:35:25;99107.91;;;26.37;53.44
17311;BME280;8773;43.300;0.394;2023-06-19T10:37:52;99113.38;;;26.37;51.22
17311;BME280;8773;43.300;0.394;2023-06-19T10:40:20;99115.00;;;26.53;52.49
17311;BME280;8773;43.300;0.394;2023-06-19T10:42:49;99115.56;;;26.65;52.29
17311;BME280;8773;43.300;0.394;2023-06-19T10:45:16;99114.19;;;26.57;51.71
17311;BME280;8773;43.300;0.394;2023-06-19T10:47:45;99110.09;;;26.45;52.49
17311;BME280;8773;43.300;0.394;2023-06-19T10:50:14;99108.44;;;26.13;52.39
17311;BME280;8773;43.300;0.394;2023-06-19T10:52:42;99111.66;;;25.85;53.99
17311;BME280;8773;43.300;0.394;2023-06-19T10:55:11;99096.63;;;25.72;54.58
17311;BME280;8773;43.300;0.394;2023-06-19T10:57:39;99091.91;;;25.57;53.91
17311;BME280;8773;43.300;0.394;2023-06-19T11:00:09;99091.91;;;25.57;55.32
17311;BME280;8773;43.300;0.394;2023-06-19T11:02:37;99092.69;;;25.43;55.67
17311;BME280;8773;43.300;0.394;2023-06-19T11:05:14;99098.84;;;25.13;55.68
17311;BME280;8773;43.300;0.394;2023-06-19T11:08:01;99100.88;;;24.85;56.38
17311;BME280;8773;43.300;0.394;2023-06-19T11:10:29;99100.25;;;24.73;57.06
17311;BME280;8773;43.300;0.394;2023-06-19T11:12:57;99107.53;;;24.52;57.73
17311;BME280;8773;43.300;0.394;2023-06-19T11:15:30;99101.66;;;24.76;58.51
17311;BME280;8773;43.300;0.394;2023-06-19T11:17:57;99101.31;;;24.30;58.53
17311;BME280;8773;43.300;0.394;2023-06-19T11:20:25;99104.97;;;24.41;60.11
17311;BME280;8773;43.300;0.394;2023-06-19T11:22:57;99096.28;;;23.85;59.83
17311;BME280;8773;43.300;0.394;2023-06-19T11:25:35;99091.91;;;23.84;59.48
17311;BME280;8773;43.300;0.394;2023-06-19T11:28:03;99093.78;;;24.42;59.65
17311;BME280;8773;43.300;0.394;2023-06-19T11:30:32;99106.38;;;24.90;57.28
17311;BME280;8773;43.300;0.394;2023-06-19T11:33:00;99110.41;;;25.25;57.17
17311;BME280;8773;43.300;0.394;2023-06-19T11:35:33;99122.69;;;25.27;57.15
17311;BME280;8773;43.300;0.394;2023-06-19T11:38:00;99111.25;;;25.31;57.86
17311;BME280;8773;43.300;0.394;2023-06-19T11:40:28;99104.94;;;25.30;57.45
17311;BME280;8773;43.300;0.394;2023-06-19T11:42:55;99106.31;;;25.27;56.49
17311;BME280;8773;43.300;0.394;2023-06-19T11:45:23;99101.09;;;25.21;55.81
17311;BME280;8773;43.300;0.394;2023-06-19T11:47:52;99098.28;;;25.06;56.36
17311;BME280;8773;43.300;0.394;2023-06-19T11:50:26;99095.19;;;24.97;57.05
17311;BME280;8773;43.300;0.394;2023-06-19T11:52:54;99095.00;;;25.09;57.38
17311;BME280;8773;43.300;0.394;2023-06-19T11:55:22;99093.81;;;25.57;55.96
17311;BME280;8773;43.300;0.394;2023-06-19T11:57:49;99100.75;;;26.05;55.97
17311;BME280;8773;43.300;0.394;2023-06-19T12:00:17;99105.16;;;26.57;55.37
17311;BME280;8773;43.300;0.394;2023-06-19T12:02:44;99106.16;;;27.02;53.19
17311;BME280;8773;43.300;0.394;2023-06-19T12:05:13;99106.53;;;27.54;52.84
17311;BME280;8773;43.300;0.394;2023-06-19T12:07:41;99116.47;;;27.84;52.24
17311;BME280;8773;43.300;0.394;2023-06-19T12:10:09;99123.94;;;27.79;50.94
17311;BME280;8773;43.300;0.394;2023-06-19T12:12:38;99127.00;;;28.11;50.38
17311;BME280;8773;43.300;0.394;2023-06-19T12:15:06;99128.25;;;27.90;50.48
17311;BME280;8773;43.300;0.394;2023-06-19T12:17:34;99133.84;;;27.70;50.20
17311;BME280;8773;43.300;0.394;2023-06-19T12:20:02;99133.72;;;27.95;50.36
17311;BME280;8773;43.300;0.394;2023-06-19T12:22:31;99138.53;;;28.08;50.64
17311;BME280;8773;43.300;0.394;2023-06-19T12:24:59;99141.84;;;28.10;50.59
17311;BME280;8773;43.300;0.394;2023-06-19T12:27:26;99144.88;;;28.04;50.18
17311;BME280;8773;43.300;0.394;2023-06-19T12:29:54;99160.59;;;27.93;50.99
17311;BME280;8773;43.300;0.394;2023-06-19T12:32:22;99167.78;;;27.84;50.21
17311;BME280;8773;43.300;0.394;2023-06-19T12:34:49;99153.03;;;27.75;51.38
17311;BME280;8773;43.300;0.394;2023-06-19T12:37:17;99149.75;;;27.03;53.06
17311;BME280;8773;43.300;0.394;2023-06-19T12:39:46;99165.91;;;26.79;54.90
17311;BME280;8773;43.300;0.394;2023-06-19T12:42:14;99156.34;;;26.67;53.88
17311;BME280;8773;43.300;0.394;2023-06-19T12:44:41;99159.06;;;26.77;53.72
17311;BME280;8773;43.300;0.394;2023-06-19T12:47:09;99163.72;;;26.71;52.75
17311;BME280;8773;43.300;0.394;2023-06-19T12:49:37;99169.19;;;26.71;53.13
17311;BME280;8773;43.300;0.394;2023-06-19T12:52:05;99174.41;;;26.83;52.23
17311;BME280;8773;43.300;0.394;2023-06-19T12:54:33;99174.66;;;26.71;54.14
17311;BME280;8773;43.300;0.394;2023-06-19T12:57:02;99179.88;;;26.98;54.16
17311;BME280;8773;43.300;0.394;2023-06-19T12:59:29;99185.31;;;27.18;52.78
17311;BME280;8773;43.300;0.394;2023-06-19T13:01:57;99193.50;;;27.23;54.08
17311;BME280;8773;43.300;0.394;2023-06-19T13:04:24;99190.50;;;27.15;56.71
17311;BME280;8773;43.300;0.394;2023-06-19T13:06:52;99173.50;;;27.28;55.49
17311;BME280;8773;43.300;0.394;2023-06-19T13:09:19;99164.28;;;26.99;55.95
17311;BME280;8773;43.300;0.394;2023-06-19T13:11:47;99157.63;;;27.15;56.30
17311;BME280;8773;43.300;0.394;2023-06-19T13:14:16;99155.97;;;27.24;54.90
17311;BME280;8773;43.300;0.394;2023-06-19T13:16:43;99129.09;;;27.21;53.28